createdAt,value
2018-12-08T00:01:01.125Z,64.37
2018-12-08T00:03:29.960Z,63.53
2018-12-08T00:05:58.916Z,64.03
2018-12-08T00:08:28.111Z,65.10
2018-12-08T00:10:56.954Z,54.53
2018-12-08T00:13:25.761Z,51.67
2018-12-08T00:15:54.634Z,47.97
2018-12-08T00:18:23.881Z,56.93
2018-12-08T00:20:52.840Z,66.70
2018-12-08T00:23:21.687Z,64.37
2018-12-08T00:25:50.488Z,65.20
2018-12-08T00:28:19.331Z,63.13
2018-12-08T00:30:59.154Z,75.70
2018-12-08T00:33:28.077Z,62.07
2018-12-08T00:35:56.996Z,51.57
2018-12-08T00:38:25.898Z,55.53
2018-12-08T00:40:54.739Z,61.30
2018-12-08T00:43:23.608Z,77.03
2018-12-08T00:45:52.580Z,80.37
2018-12-08T00:48:21.483Z,83.03
2018-12-08T00:50:50.296Z,64.93
2018-12-08T00:53:19.128Z,63.77
2018-12-08T00:55:47.929Z,68.27
2018-12-08T00:58:16.813Z,73.30
2018-12-08T01:00:45.727Z,66.20
2018-12-08T01:03:14.507Z,64.73
2018-12-08T01:05:43.350Z,59.97
2018-12-08T01:08:12.375Z,62.73
2018-12-08T01:10:41.192Z,59.03
2018-12-08T01:13:10.070Z,58.40
2018-12-08T01:15:38.951Z,65.53
2018-12-08T01:18:07.852Z,62.73
2018-12-08T01:20:36.647Z,65.47
2018-12-08T01:23:05.509Z,60.70
2018-12-08T01:25:34.488Z,67.47
2018-12-08T01:28:03.351Z,60.67
2018-12-08T01:30:32.332Z,68.63
2018-12-08T01:33:01.352Z,63.27
2018-12-08T01:35:30.267Z,62.77
2018-12-08T01:37:59.129Z,64.10
2018-12-08T01:40:27.945Z,65.57
2018-12-08T01:42:56.934Z,108.77
2018-12-08T01:45:26.478Z,97.70
2018-12-08T01:47:55.455Z,77.67
2018-12-08T01:50:24.346Z,75.10
2018-12-08T01:52:53.338Z,83.10
2018-12-08T01:55:22.307Z,117.67
2018-12-08T01:57:51.193Z,131.20
2018-12-08T02:00:20.123Z,87.50
2018-12-08T02:02:48.940Z,71.43
2018-12-08T02:05:17.859Z,66.30
2018-12-08T02:07:46.635Z,62.67
2018-12-08T02:10:15.523Z,62.53
2018-12-08T02:12:44.348Z,67.63
2018-12-08T02:15:13.407Z,65.40
2018-12-08T02:17:42.247Z,67.07
2018-12-08T02:20:11.084Z,72.63
2018-12-08T02:22:39.906Z,80.83
2018-12-08T02:25:08.743Z,82.30
2018-12-08T02:27:37.588Z,72.10
2018-12-08T02:30:06.627Z,68.77
2018-12-08T02:32:35.648Z,68.47
2018-12-08T02:35:04.936Z,80.77
2018-12-08T02:37:33.767Z,74.47
2018-12-08T02:40:02.643Z,72.33
2018-12-08T02:42:31.645Z,75.73
2018-12-08T02:45:00.510Z,68.17
2018-12-08T02:47:29.528Z,75.37
2018-12-08T02:49:58.497Z,76.67
2018-12-08T02:52:27.539Z,80.30
2018-12-08T02:54:56.360Z,75.73
2018-12-08T02:57:25.199Z,69.23
2018-12-08T02:59:54.041Z,81.20
2018-12-08T03:02:22.923Z,69.63
2018-12-08T03:04:51.871Z,71.47
2018-12-08T03:07:20.678Z,75.57
2018-12-08T03:09:49.611Z,86.63
2018-12-08T03:12:18.470Z,90.17
2018-12-08T03:14:47.419Z,85.43
2018-12-08T03:17:16.366Z,85.93
2018-12-08T03:19:45.232Z,81.33
2018-12-08T03:22:14.097Z,83.53
2018-12-08T03:24:42.875Z,81.97
2018-12-08T03:27:11.762Z,73.27
2018-12-08T03:29:40.653Z,65.30
2018-12-08T03:32:09.555Z,71.40
2018-12-08T03:34:38.487Z,73.00
2018-12-08T03:37:07.375Z,77.23
2018-12-08T03:39:36.319Z,78.83
2018-12-08T03:42:05.409Z,72.33
2018-12-08T03:44:34.223Z,74.80
2018-12-08T03:47:03.109Z,76.03
2018-12-08T03:49:31.985Z,75.63
2018-12-08T03:52:00.791Z,77.47
2018-12-08T03:54:29.687Z,91.07
2018-12-08T03:56:58.617Z,80.53
2018-12-08T03:59:27.492Z,84.33
2018-12-08T04:01:56.410Z,78.37
2018-12-08T04:04:25.212Z,80.57
2018-12-08T04:06:54.026Z,75.60
2018-12-08T04:09:22.879Z,75.37
2018-12-08T04:11:51.780Z,77.30
2018-12-08T04:14:20.656Z,79.37
2018-12-08T04:16:49.661Z,77.00
2018-12-08T04:19:18.480Z,71.77
2018-12-08T04:21:47.493Z,65.53
2018-12-08T04:24:16.376Z,68.23
2018-12-08T04:26:45.300Z,67.67
2018-12-08T04:29:14.311Z,68.70
2018-12-08T04:31:43.103Z,70.63
2018-12-08T04:34:11.949Z,68.10
2018-12-08T04:36:40.779Z,70.00
2018-12-08T04:39:09.699Z,68.13
2018-12-08T04:41:38.541Z,63.47
2018-12-08T04:44:07.457Z,65.33
2018-12-08T04:46:36.333Z,70.83
2018-12-08T04:49:05.163Z,68.47
2018-12-08T04:51:33.964Z,73.70
2018-12-08T04:54:02.894Z,80.27
2018-12-08T04:56:31.716Z,76.97
2018-12-08T04:59:00.686Z,78.97
2018-12-08T05:01:29.642Z,78.83
2018-12-08T05:03:58.397Z,85.60
2018-12-08T05:06:27.326Z,84.77
2018-12-08T05:08:56.145Z,79.60
2018-12-08T05:11:24.929Z,77.83
2018-12-08T05:13:53.788Z,76.07
2018-12-08T05:16:22.639Z,79.47
2018-12-08T05:18:51.455Z,121.63
2018-12-08T05:21:20.272Z,93.40
2018-12-08T05:23:49.177Z,90.87
2018-12-08T05:26:18.052Z,107.23
2018-12-08T05:28:46.957Z,127.07
2018-12-08T05:31:15.865Z,99.57
2018-12-08T05:33:44.679Z,75.33
2018-12-08T05:36:13.603Z,84.57
2018-12-08T05:38:42.443Z,119.80
2018-12-08T05:41:11.380Z,98.00
2018-12-08T05:43:40.219Z,88.03
2018-12-08T05:46:09.100Z,77.30
2018-12-08T05:48:37.920Z,72.23
2018-12-08T05:51:06.862Z,97.20
2018-12-08T05:53:35.679Z,86.23
2018-12-08T05:56:04.641Z,102.90
2018-12-08T05:58:33.442Z,108.90
2018-12-08T06:01:02.250Z,97.03
2018-12-08T06:03:31.160Z,104.27
2018-12-08T06:05:59.948Z,140.80
2018-12-08T06:08:28.785Z,135.67
2018-12-08T06:10:57.608Z,199.93
2018-12-08T06:13:26.461Z,123.43
2018-12-08T06:15:55.430Z,109.40
2018-12-08T06:18:24.242Z,102.23
2018-12-08T06:20:53.044Z,85.90
2018-12-08T06:23:21.880Z,71.40
2018-12-08T06:25:50.910Z,81.37
2018-12-08T06:28:28.915Z,72.00
2018-12-08T06:30:57.809Z,72.73
2018-12-08T06:33:27.069Z,74.07
2018-12-08T06:35:56.327Z,95.03
2018-12-08T06:38:25.671Z,71.33
2018-12-08T06:40:54.705Z,62.63
2018-12-08T06:43:23.921Z,63.50
2018-12-08T06:45:53.184Z,62.07
2018-12-08T06:48:22.388Z,62.90
2018-12-08T06:50:51.583Z,237.83
2018-12-08T06:53:20.681Z,167.93
2018-12-08T06:55:49.443Z,144.37
2018-12-08T06:58:18.482Z,157.17
2018-12-08T07:00:47.656Z,125.77
2018-12-08T07:03:16.533Z,137.57
2018-12-08T07:05:45.375Z,145.30
2018-12-08T07:08:14.231Z,170.17
2018-12-08T07:10:42.996Z,145.20
2018-12-08T07:13:11.838Z,140.40
2018-12-08T07:15:40.621Z,151.10
2018-12-08T07:18:09.482Z,212.40
2018-12-08T07:20:38.279Z,160.03
2018-12-08T07:23:07.063Z,111.37
2018-12-08T07:25:36.021Z,99.10
2018-12-08T07:28:06.415Z,99.43
2018-12-08T07:30:35.500Z,102.43
2018-12-08T07:33:04.420Z,177.63
2018-12-08T07:35:33.633Z,113.17
2018-12-08T07:38:02.570Z,143.57
2018-12-08T07:40:31.468Z,178.80
2018-12-08T07:43:00.418Z,217.33
2018-12-08T07:45:29.398Z,246.50
2018-12-08T07:47:58.398Z,200.90
2018-12-08T07:50:27.210Z,165.00
2018-12-08T07:52:56.155Z,127.63
2018-12-08T07:55:25.078Z,125.53
2018-12-08T07:57:53.998Z,92.77
2018-12-08T08:00:22.967Z,104.73
2018-12-08T08:02:51.787Z,117.23
2018-12-08T08:05:20.535Z,98.07
2018-12-08T08:07:49.368Z,93.60
2018-12-08T08:10:18.170Z,82.83
2018-12-08T08:12:46.977Z,84.00
2018-12-08T08:15:15.848Z,82.73
2018-12-08T08:17:44.656Z,91.63
2018-12-08T08:20:13.566Z,87.80
2018-12-08T08:22:42.534Z,75.30
2018-12-08T08:25:12.105Z,80.67
2018-12-08T08:27:40.949Z,83.47
2018-12-08T08:30:11.791Z,71.60
2018-12-08T08:32:40.562Z,85.10
2018-12-08T08:35:09.647Z,100.40
2018-12-08T08:37:38.597Z,69.30
2018-12-08T08:40:09.720Z,80.73
2018-12-08T08:42:38.517Z,128.37
2018-12-08T08:45:08.338Z,116.60
2018-12-08T08:47:37.256Z,129.77
2018-12-08T08:50:08.829Z,131.83
2018-12-08T08:52:37.739Z,159.90
2018-12-08T08:55:07.287Z,126.87
2018-12-08T08:57:36.144Z,120.70
2018-12-08T09:00:07.012Z,150.53
2018-12-08T09:02:35.926Z,134.97
2018-12-08T09:05:05.424Z,141.27
2018-12-08T09:07:34.327Z,121.23
2018-12-08T09:10:03.219Z,136.60
2018-12-08T09:12:31.986Z,81.87
2018-12-08T09:15:00.904Z,79.07
2018-12-08T09:17:29.748Z,77.67
2018-12-08T09:19:58.594Z,68.33
2018-12-08T09:22:27.403Z,76.50
2018-12-08T09:24:56.377Z,66.03
2018-12-08T09:27:25.315Z,67.20
2018-12-08T09:29:54.155Z,73.77
2018-12-08T09:32:23.017Z,66.37
2018-12-08T09:34:51.805Z,65.47
2018-12-08T09:37:20.607Z,63.17
2018-12-08T09:39:49.463Z,78.30
2018-12-08T09:42:18.295Z,71.90
2018-12-08T09:44:47.132Z,65.20
2018-12-08T09:47:16.012Z,60.27
2018-12-08T09:49:44.863Z,60.60
2018-12-08T09:52:13.658Z,70.00
2018-12-08T09:54:42.644Z,63.63
2018-12-08T09:57:11.499Z,66.83
2018-12-08T09:59:40.250Z,63.03
2018-12-08T10:02:09.070Z,69.13
2018-12-08T10:04:38.422Z,76.80
2018-12-08T10:07:07.370Z,82.83
2018-12-08T10:09:36.273Z,66.23
2018-12-08T10:12:05.283Z,67.33
2018-12-08T10:14:34.239Z,67.23
2018-12-08T10:17:02.992Z,62.53
2018-12-08T10:19:31.926Z,79.83
2018-12-08T10:22:00.766Z,86.93
2018-12-08T10:24:29.666Z,64.23
2018-12-08T10:26:58.517Z,67.77
2018-12-08T10:29:28.141Z,61.33
2018-12-08T10:31:57.243Z,61.47
2018-12-08T10:34:26.035Z,58.77
2018-12-08T10:36:54.982Z,65.23
2018-12-08T10:39:23.892Z,61.83
2018-12-08T10:41:52.676Z,69.60
2018-12-08T10:44:21.571Z,58.97
2018-12-08T10:46:50.483Z,59.70
2018-12-08T10:49:19.451Z,67.53
2018-12-08T10:51:48.246Z,69.27
2018-12-08T10:54:17.069Z,68.50
2018-12-08T10:56:45.891Z,63.40
2018-12-08T10:59:14.716Z,64.00
2018-12-08T11:01:48.700Z,66.70
2018-12-08T11:04:17.530Z,67.53
2018-12-08T11:06:46.424Z,66.73
2018-12-08T11:09:15.309Z,69.97
2018-12-08T11:11:44.247Z,67.50
2018-12-08T11:14:13.124Z,71.03
2018-12-08T11:16:41.954Z,71.70
2018-12-08T11:19:10.819Z,67.17
2018-12-08T11:21:39.668Z,81.43
2018-12-08T11:24:08.519Z,70.47
2018-12-08T11:26:37.343Z,66.57
2018-12-08T11:29:06.137Z,65.47
2018-12-08T11:31:35.000Z,69.53
2018-12-08T11:34:03.870Z,65.20
2018-12-08T11:36:32.762Z,62.23
2018-12-08T11:39:01.545Z,69.67
2018-12-08T11:41:30.411Z,62.97
2018-12-08T11:43:59.222Z,78.80
2018-12-08T11:46:28.070Z,72.37
2018-12-08T11:48:56.973Z,79.20
2018-12-08T11:51:25.798Z,76.43
2018-12-08T11:53:54.750Z,67.27
2018-12-08T11:56:23.672Z,74.57
2018-12-08T11:58:52.447Z,78.93
2018-12-08T12:01:21.281Z,86.27
2018-12-08T12:03:50.100Z,90.27
2018-12-08T12:06:18.953Z,82.50
2018-12-08T12:08:47.917Z,74.03
2018-12-08T12:11:17.568Z,66.73
2018-12-08T12:13:46.413Z,71.37
2018-12-08T12:16:15.608Z,93.90
2018-12-08T12:18:44.500Z,90.60
2018-12-08T12:21:13.469Z,83.73
2018-12-08T12:23:42.348Z,80.70
2018-12-08T12:26:11.292Z,80.23
2018-12-08T12:28:40.188Z,85.80
2018-12-08T12:31:09.033Z,101.23
2018-12-08T12:33:37.963Z,102.00
2018-12-08T12:36:06.871Z,122.63
2018-12-08T12:38:35.721Z,107.47
2018-12-08T12:41:04.571Z,89.77
2018-12-08T12:43:33.555Z,116.40
2018-12-08T12:46:02.343Z,88.07
2018-12-08T12:48:32.148Z,95.40
2018-12-08T12:51:01.053Z,78.60
2018-12-08T12:53:29.983Z,76.80
2018-12-08T12:55:58.833Z,73.30
2018-12-08T12:58:27.658Z,77.67
2018-12-08T13:00:56.507Z,73.00
2018-12-08T13:03:25.319Z,82.43
2018-12-08T13:05:54.060Z,91.37
2018-12-08T13:08:22.951Z,128.00
2018-12-08T13:10:51.800Z,91.10
2018-12-08T13:13:20.682Z,79.33
2018-12-08T13:15:49.520Z,71.03
2018-12-08T13:18:18.541Z,86.10
2018-12-08T13:20:48.021Z,95.17
2018-12-08T13:23:16.923Z,117.80
2018-12-08T13:25:45.761Z,124.97
2018-12-08T13:28:14.627Z,139.50
2018-12-08T13:30:43.800Z,116.80
2018-12-08T13:33:12.672Z,76.53
2018-12-08T13:35:57.887Z,101.60
2018-12-08T13:38:26.747Z,99.40
2018-12-08T13:40:55.636Z,98.33
2018-12-08T13:43:24.551Z,96.93
2018-12-08T13:45:53.530Z,93.67
2018-12-08T13:48:24.933Z,87.53
2018-12-08T13:50:54.112Z,103.43
2018-12-08T13:53:22.958Z,109.23
2018-12-08T13:55:51.859Z,96.43
2018-12-08T13:58:20.603Z,104.30
2018-12-08T14:00:49.432Z,109.70
2018-12-08T14:03:18.255Z,96.40
2018-12-08T14:05:47.127Z,89.40
2018-12-08T14:08:15.981Z,88.13
2018-12-08T14:10:44.923Z,97.27
2018-12-08T14:13:13.883Z,90.67
2018-12-08T14:15:42.718Z,109.17
2018-12-08T14:18:11.637Z,124.37
2018-12-08T14:20:40.511Z,126.80
2018-12-08T14:23:09.392Z,142.57
2018-12-08T14:25:38.172Z,122.87
2018-12-08T14:28:07.101Z,111.33
2018-12-08T14:30:35.990Z,109.83
2018-12-08T14:33:04.961Z,107.10
2018-12-08T14:35:33.945Z,132.00
2018-12-08T14:38:02.869Z,95.30
2018-12-08T14:40:31.783Z,94.83
2018-12-08T14:43:00.678Z,99.80
2018-12-08T14:45:29.488Z,94.47
2018-12-08T14:47:58.398Z,90.43
2018-12-08T14:50:27.212Z,132.13
2018-12-08T14:52:56.088Z,125.03
2018-12-08T14:55:24.988Z,124.20
2018-12-08T14:57:53.828Z,139.17
2018-12-08T15:00:22.698Z,141.83
2018-12-08T15:02:51.507Z,132.77
2018-12-08T15:05:20.358Z,144.73
2018-12-08T15:07:49.164Z,163.50
2018-12-08T15:10:18.056Z,124.47
2018-12-08T15:12:46.839Z,117.37
2018-12-08T15:15:15.750Z,139.23
2018-12-08T15:17:44.982Z,167.37
2018-12-08T15:20:14.032Z,161.73
2018-12-08T15:22:43.088Z,161.37
2018-12-08T15:25:12.268Z,155.93
2018-12-08T15:27:41.293Z,124.60
2018-12-08T15:30:11.081Z,122.50
2018-12-08T15:32:40.077Z,116.60
2018-12-08T15:35:10.765Z,122.23
2018-12-08T15:37:40.655Z,138.93
2018-12-08T15:40:10.850Z,174.23
2018-12-08T15:42:40.199Z,276.73
2018-12-08T15:45:11.158Z,324.77
2018-12-08T15:47:40.160Z,233.60
2018-12-08T15:50:11.110Z,223.90
2018-12-08T15:52:41.145Z,219.57
2018-12-08T15:55:10.026Z,257.33
2018-12-08T15:57:39.330Z,277.90
2018-12-08T16:00:11.095Z,256.33
2018-12-08T16:02:40.633Z,217.37
2018-12-08T16:05:09.927Z,174.07
2018-12-08T16:07:38.900Z,141.37
2018-12-08T16:10:09.326Z,119.60
2018-12-08T16:12:38.273Z,106.70
2018-12-08T16:15:08.803Z,104.70
2018-12-08T16:17:37.801Z,123.13
2018-12-08T16:20:10.780Z,130.17
2018-12-08T16:22:40.047Z,130.83
2018-12-08T16:25:09.441Z,169.47
2018-12-08T16:27:38.759Z,179.57
2018-12-08T16:30:09.295Z,142.77
2018-12-08T16:32:38.108Z,155.70
2018-12-08T16:35:07.340Z,124.03
2018-12-08T16:37:36.292Z,120.97
2018-12-08T16:40:05.690Z,121.27
2018-12-08T16:42:34.853Z,238.87
2018-12-08T16:45:04.037Z,209.07
2018-12-08T16:47:33.844Z,190.77
2018-12-08T16:50:02.699Z,169.03
2018-12-08T16:52:31.719Z,138.07
2018-12-08T16:55:00.553Z,135.10
2018-12-08T16:57:29.520Z,141.87
2018-12-08T16:59:58.835Z,135.13
2018-12-08T17:02:27.627Z,124.87
2018-12-08T17:04:57.091Z,118.23
2018-12-08T17:07:26.190Z,118.60
2018-12-08T17:09:55.041Z,194.07
2018-12-08T17:12:24.069Z,128.23
2018-12-08T17:14:52.956Z,108.17
2018-12-08T17:17:21.859Z,108.80
2018-12-08T17:19:50.806Z,114.50
2018-12-08T17:22:19.692Z,115.67
2018-12-08T17:24:48.640Z,131.77
2018-12-08T17:27:17.444Z,325.97
2018-12-08T17:29:46.556Z,350.60
2018-12-08T17:32:15.390Z,165.80
2018-12-08T17:34:44.886Z,237.87
2018-12-08T17:37:13.764Z,189.07
2018-12-08T17:39:42.703Z,152.67
2018-12-08T17:42:11.578Z,150.70
2018-12-08T17:44:40.383Z,142.53
2018-12-08T17:47:09.314Z,152.37
2018-12-08T17:49:39.198Z,183.70
2018-12-08T17:52:08.031Z,145.13
2018-12-08T17:54:38.121Z,137.00
2018-12-08T17:57:07.280Z,149.97
2018-12-08T17:59:36.116Z,141.03
2018-12-08T18:02:05.885Z,146.97
2018-12-08T18:04:34.817Z,200.27
2018-12-08T18:07:03.944Z,165.23
2018-12-08T18:09:32.700Z,250.90
2018-12-08T18:12:01.740Z,228.07
2018-12-08T18:14:30.547Z,192.30
2018-12-08T18:17:00.245Z,167.93
2018-12-08T18:19:29.068Z,155.93
2018-12-08T18:21:58.491Z,144.03
2018-12-08T18:24:27.492Z,134.10
2018-12-08T18:26:56.607Z,134.70
2018-12-08T18:29:26.067Z,101.97
2018-12-08T18:31:54.922Z,113.57
2018-12-08T18:34:24.283Z,115.70
2018-12-08T18:36:53.104Z,108.93
2018-12-08T18:39:22.084Z,106.70
2018-12-08T18:41:51.409Z,102.90
2018-12-08T18:44:21.002Z,114.23
2018-12-08T18:46:51.183Z,113.53
2018-12-08T18:49:20.937Z,138.07
2018-12-08T18:51:50.730Z,205.67
2018-12-08T18:54:20.012Z,119.93
2018-12-08T18:56:48.940Z,132.57
2018-12-08T18:59:17.912Z,132.43
2018-12-08T19:01:46.791Z,92.47
2018-12-08T19:04:15.665Z,75.10
2018-12-08T19:06:44.494Z,67.00
2018-12-08T19:09:13.484Z,82.50
2018-12-08T19:11:42.474Z,100.93
2018-12-08T19:14:11.319Z,90.93
2018-12-08T19:16:40.120Z,86.23
2018-12-08T19:19:09.051Z,88.13
2018-12-08T19:21:38.461Z,84.90
2018-12-08T19:24:07.299Z,88.10
2018-12-08T19:26:36.482Z,94.87
2018-12-08T19:29:05.467Z,97.17
2018-12-08T19:31:36.392Z,87.33
2018-12-08T19:34:05.803Z,73.77
2018-12-08T19:36:35.935Z,99.23
2018-12-08T19:39:06.579Z,109.87
2018-12-08T19:41:35.556Z,150.17
2018-12-08T19:44:05.019Z,106.03
2018-12-08T19:46:33.983Z,78.03
2018-12-08T19:49:02.757Z,103.90
2018-12-08T19:51:32.635Z,91.80
2018-12-08T19:54:01.462Z,101.93
2018-12-08T19:56:30.309Z,94.33
2018-12-08T19:58:59.184Z,103.90
2018-12-08T20:01:28.040Z,117.97
2018-12-08T20:03:56.867Z,108.07
2018-12-08T20:06:25.732Z,116.27
2018-12-08T20:08:55.008Z,118.93
2018-12-08T20:11:23.972Z,115.07
2018-12-08T20:13:52.794Z,119.83
2018-12-08T20:16:21.679Z,116.57
2018-12-08T20:18:50.548Z,109.83
2018-12-08T20:21:19.482Z,142.90
2018-12-08T20:23:48.316Z,133.73
2018-12-08T20:26:17.208Z,165.73
2018-12-08T20:28:46.136Z,157.87
2018-12-08T20:31:15.028Z,194.17
2018-12-08T20:33:43.883Z,139.77
2018-12-08T20:36:12.718Z,275.23
2018-12-08T20:38:41.583Z,113.27
2018-12-08T20:41:10.435Z,113.40
2018-12-08T20:43:39.298Z,104.40
2018-12-08T20:46:08.103Z,108.93
2018-12-08T20:48:37.053Z,121.70
2018-12-08T20:51:05.856Z,132.60
2018-12-08T20:53:34.627Z,113.77
2018-12-08T20:56:03.658Z,121.83
2018-12-08T20:58:32.460Z,117.57
2018-12-08T21:01:01.223Z,117.90
2018-12-08T21:03:30.036Z,118.20
2018-12-08T21:05:58.985Z,102.73
2018-12-08T21:08:27.862Z,106.03
2018-12-08T21:10:56.670Z,107.90
2018-12-08T21:13:25.463Z,109.60
2018-12-08T21:15:54.260Z,107.40
2018-12-08T21:18:24.027Z,112.20
2018-12-08T21:20:52.886Z,114.80
2018-12-08T21:23:21.739Z,117.43
2018-12-08T21:25:50.587Z,115.03
2018-12-08T21:28:19.368Z,115.00
2018-12-08T21:30:48.379Z,108.50
2018-12-08T21:33:17.218Z,112.10
2018-12-08T21:35:46.073Z,111.10
2018-12-08T21:38:14.903Z,103.20
2018-12-08T21:40:43.854Z,105.40
2018-12-08T21:43:12.791Z,120.30
2018-12-08T21:45:41.663Z,110.00
2018-12-08T21:48:10.657Z,101.93
2018-12-08T21:50:39.515Z,108.77
2018-12-08T21:53:08.370Z,108.57
2018-12-08T21:55:37.376Z,99.87
2018-12-08T21:58:06.285Z,99.40
2018-12-08T22:00:35.290Z,97.00
2018-12-08T22:03:04.312Z,94.73
2018-12-08T22:05:33.267Z,87.53
2018-12-08T22:08:02.132Z,83.67
2018-12-08T22:10:30.979Z,99.50
2018-12-08T22:12:59.828Z,85.23
2018-12-08T22:15:28.719Z,94.10
2018-12-08T22:17:57.575Z,96.40
2018-12-08T22:20:26.396Z,89.37
2018-12-08T22:22:55.252Z,87.47
2018-12-08T22:25:24.055Z,87.70
2018-12-08T22:27:52.916Z,87.20
2018-12-08T22:30:21.842Z,86.30
2018-12-08T22:32:50.576Z,89.20
2018-12-08T22:35:19.455Z,90.03
